createdAt,value
2023-02-28T00:00:20.524Z,24.08
2023-02-28T00:02:48.042Z,21.40
2023-02-28T00:05:17.558Z,21.00
2023-02-28T00:07:44.109Z,23.27
2023-02-28T00:10:13.536Z,24.83
2023-02-28T00:12:40.204Z,29.35
2023-02-28T00:15:08.438Z,26.58
2023-02-28T00:17:35.027Z,23.45
2023-02-28T00:20:12.859Z,20.95
2023-02-28T00:22:41.578Z,21.73
2023-02-28T00:25:08.810Z,14.75
2023-02-28T00:27:36.542Z,17.63
2023-02-28T00:30:04.158Z,24.45
2023-02-28T00:32:30.981Z,21.08
2023-02-28T00:34:57.682Z,20.73
2023-02-28T00:37:24.208Z,24.38
2023-02-28T00:39:50.683Z,23.33
2023-02-28T00:42:17.279Z,25.15
2023-02-28T00:44:43.788Z,25.35
2023-02-28T00:47:10.289Z,24.40
2023-02-28T00:49:36.849Z,17.80
2023-02-28T00:52:03.694Z,17.77
2023-02-28T00:54:30.206Z,17.67
2023-02-28T00:56:56.796Z,19.75
2023-02-28T00:59:23.304Z,18.48
2023-02-28T01:01:49.817Z,18.00
2023-02-28T01:04:16.372Z,23.20
2023-02-28T01:06:43.319Z,18.80
2023-02-28T01:09:10.410Z,17.30
2023-02-28T01:11:37.105Z,16.98
2023-02-28T01:14:05.122Z,17.27
2023-02-28T01:16:32.253Z,17.02
2023-02-28T01:18:59.087Z,18.42
2023-02-28T01:21:25.617Z,22.77
2023-02-28T01:23:52.220Z,17.33
2023-02-28T01:26:23.443Z,15.82
2023-02-28T01:28:51.853Z,17.63
2023-02-28T01:31:20.143Z,19.45
2023-02-28T01:33:47.270Z,20.27
2023-02-28T01:36:16.797Z,19.73
2023-02-28T01:38:43.921Z,19.35
2023-02-28T01:41:16.745Z,20.27
2023-02-28T01:43:43.268Z,20.13
2023-02-28T01:46:10.603Z,18.13
2023-02-28T01:48:56.259Z,19.70
2023-02-28T01:51:55.972Z,20.35
2023-02-28T01:54:26.747Z,18.23
2023-02-28T01:56:58.054Z,18.13
2023-02-28T01:59:47.415Z,18.90
2023-02-28T02:02:14.955Z,18.90
2023-02-28T02:04:51.894Z,17.15
2023-02-28T02:07:18.514Z,17.50
2023-02-28T02:09:45.032Z,17.63
2023-02-28T02:12:44.828Z,19.90
2023-02-28T02:15:18.793Z,37.38
2023-02-28T02:17:49.273Z,31.63
2023-02-28T02:20:37.733Z,28.42
2023-02-28T02:23:15.304Z,27.05
2023-02-28T02:25:54.653Z,25.73
2023-02-28T02:28:46.878Z,22.80
2023-02-28T02:31:34.051Z,21.50
2023-02-28T02:34:25.159Z,25.88
2023-02-28T02:37:21.251Z,23.67
2023-02-28T02:40:01.500Z,21.35
2023-02-28T02:42:43.622Z,18.10
2023-02-28T02:45:20.061Z,18.65
2023-02-28T02:47:46.853Z,11.80
2023-02-28T02:50:20.485Z,15.48
2023-02-28T02:52:52.150Z,17.13
2023-02-28T02:55:21.364Z,15.40
2023-02-28T02:57:59.958Z,16.95
2023-02-28T03:00:31.989Z,15.20
2023-02-28T03:02:59.082Z,15.13
2023-02-28T03:05:29.709Z,14.52
2023-02-28T03:07:56.222Z,14.77
2023-02-28T03:10:36.374Z,14.57
2023-02-28T03:13:20.910Z,15.77
2023-02-28T03:16:02.236Z,16.67
2023-02-28T03:18:44.477Z,16.13
2023-02-28T03:21:31.416Z,16.40
2023-02-28T03:24:11.708Z,17.70
2023-02-28T03:26:44.467Z,17.40
2023-02-28T03:29:19.033Z,15.48
2023-02-28T03:31:59.294Z,16.80
2023-02-28T03:34:37.350Z,15.35
2023-02-28T03:37:10.462Z,16.23
2023-02-28T03:40:00.445Z,16.90
2023-02-28T03:42:32.160Z,15.45
2023-02-28T03:45:03.720Z,17.30
2023-02-28T03:47:36.891Z,16.02
2023-02-28T03:50:15.981Z,15.95
2023-02-28T03:52:52.386Z,15.57
2023-02-28T03:55:19.862Z,15.73
2023-02-28T03:58:00.285Z,16.80
2023-02-28T04:00:39.089Z,15.68
2023-02-28T04:03:05.918Z,15.57
2023-02-28T04:05:33.021Z,14.30
2023-02-28T04:08:08.237Z,14.32
2023-02-28T04:10:35.212Z,15.70
2023-02-28T04:13:01.698Z,16.58
2023-02-28T04:15:28.429Z,14.90
2023-02-28T04:17:54.940Z,15.30
2023-02-28T04:20:21.422Z,15.85
2023-02-28T04:22:47.956Z,15.93
2023-02-28T04:25:14.514Z,17.05
2023-02-28T04:27:41.042Z,17.45
2023-02-28T04:30:08.125Z,16.25
2023-02-28T04:32:34.689Z,15.00
2023-02-28T04:35:01.162Z,14.18
2023-02-28T04:37:29.860Z,15.32
2023-02-28T04:39:56.369Z,16.08
2023-02-28T04:42:22.933Z,17.00
2023-02-28T04:44:49.438Z,15.93
2023-02-28T04:47:15.948Z,17.17
2023-02-28T04:49:42.583Z,17.13
2023-02-28T04:52:09.143Z,16.58
2023-02-28T04:54:36.291Z,16.67
2023-02-28T04:57:02.835Z,16.80
2023-02-28T04:59:29.306Z,17.00
2023-02-28T05:01:55.814Z,15.95
2023-02-28T05:04:22.392Z,16.83
2023-02-28T05:06:48.899Z,16.15
2023-02-28T05:09:15.383Z,17.15
2023-02-28T05:11:42.090Z,16.50
2023-02-28T05:14:13.050Z,15.70
2023-02-28T05:16:39.630Z,15.32
2023-02-28T05:19:06.207Z,16.17
2023-02-28T05:21:50.831Z,16.05
2023-02-28T05:24:23.614Z,16.75
2023-02-28T05:26:53.038Z,16.17
2023-02-28T05:29:19.544Z,14.90
2023-02-28T05:31:46.406Z,12.90
2023-02-28T05:34:13.662Z,15.15
2023-02-28T05:36:40.366Z,14.65
2023-02-28T05:39:13.349Z,14.73
2023-02-28T05:41:43.606Z,16.13
2023-02-28T05:44:11.154Z,15.48
2023-02-28T05:46:37.712Z,19.45
2023-02-28T05:49:04.411Z,16.75
2023-02-28T05:51:31.323Z,15.65
2023-02-28T05:54:01.544Z,15.52
2023-02-28T05:56:28.135Z,15.98
2023-02-28T05:58:54.717Z,16.73
2023-02-28T06:01:31.978Z,15.95
2023-02-28T06:04:01.051Z,15.43
2023-02-28T06:06:27.888Z,16.65
2023-02-28T06:08:54.457Z,18.42
2023-02-28T06:11:21.430Z,17.38
2023-02-28T06:13:48.360Z,15.60
2023-02-28T06:16:15.016Z,14.80
2023-02-28T06:18:41.605Z,14.73
2023-02-28T06:21:09.956Z,16.85
2023-02-28T06:23:36.952Z,17.88
2023-02-28T06:26:03.609Z,15.60
2023-02-28T06:28:30.166Z,15.98
2023-02-28T06:30:56.883Z,15.82
2023-02-28T06:33:23.517Z,15.52
2023-02-28T06:35:53.633Z,16.17
2023-02-28T06:38:20.301Z,14.95
2023-02-28T06:40:54.910Z,14.93
2023-02-28T06:43:21.879Z,15.05
2023-02-28T06:45:48.351Z,15.77
2023-02-28T06:48:14.839Z,14.88
2023-02-28T06:50:41.629Z,14.23
2023-02-28T06:53:08.229Z,15.82
2023-02-28T06:55:34.745Z,12.48
2023-02-28T06:58:01.327Z,12.07
2023-02-28T07:00:27.898Z,12.52
2023-02-28T07:02:56.117Z,12.93
2023-02-28T07:05:22.670Z,11.98
2023-02-28T07:07:49.189Z,10.60
2023-02-28T07:10:20.178Z,10.93
2023-02-28T07:12:47.023Z,10.80
2023-02-28T07:15:13.551Z,11.32
2023-02-28T07:17:40.098Z,11.13
2023-02-28T07:20:07.157Z,11.80
2023-02-28T07:22:33.701Z,11.55
2023-02-28T07:25:00.173Z,10.15
2023-02-28T07:27:26.749Z,10.40
2023-02-28T07:29:54.266Z,9.10
2023-02-28T07:32:20.830Z,9.50
2023-02-28T07:34:47.399Z,9.65
2023-02-28T07:37:13.919Z,9.07
2023-02-28T07:39:42.880Z,8.10
2023-02-28T07:42:12.276Z,8.48
2023-02-28T07:44:42.162Z,9.35
2023-02-28T07:47:10.034Z,7.95
2023-02-28T07:49:39.811Z,8.55
2023-02-28T07:52:08.176Z,7.70
2023-02-28T07:54:35.177Z,7.13
2023-02-28T07:57:01.697Z,7.97
2023-02-28T07:59:29.504Z,7.47
2023-02-28T08:01:59.004Z,6.40
2023-02-28T08:04:26.077Z,6.65
2023-02-28T08:06:55.213Z,6.53
2023-02-28T08:09:21.734Z,6.70
2023-02-28T08:11:48.354Z,6.95
2023-02-28T08:14:14.905Z,6.53
2023-02-28T08:16:41.481Z,6.38
2023-02-28T08:19:08.005Z,7.15
2023-02-28T08:21:34.609Z,6.22
2023-02-28T08:24:01.141Z,7.70
2023-02-28T08:26:27.694Z,7.70
2023-02-28T08:28:56.120Z,6.97
2023-02-28T08:31:24.093Z,6.25
2023-02-28T08:33:52.948Z,6.95
2023-02-28T08:36:21.257Z,7.47
2023-02-28T08:38:47.881Z,7.22
2023-02-28T08:41:14.542Z,7.10
2023-02-28T08:43:41.885Z,7.68
2023-02-28T08:46:09.433Z,6.80
2023-02-28T08:48:38.907Z,6.53
2023-02-28T08:51:08.674Z,6.40
2023-02-28T08:53:36.692Z,7.78
2023-02-28T08:56:12.025Z,6.32
2023-02-28T08:58:38.836Z,5.05
2023-02-28T09:01:29.408Z,6.40
2023-02-28T09:06:43.972Z,6.10
2023-02-28T09:09:10.652Z,5.38
2023-02-28T09:11:37.668Z,4.95
2023-02-28T09:14:04.663Z,6.07
2023-02-28T09:16:33.409Z,5.63
2023-02-28T09:19:00.263Z,6.10
2023-02-28T09:21:27.650Z,5.40
2023-02-28T09:23:54.339Z,5.03
2023-02-28T09:26:27.071Z,4.40
2023-02-28T09:28:55.915Z,4.07
2023-02-28T09:31:26.214Z,4.20
2023-02-28T09:33:55.125Z,3.70
2023-02-28T09:36:23.454Z,3.53
2023-02-28T09:38:53.730Z,4.00
2023-02-28T09:41:26.544Z,3.97
2023-02-28T09:43:57.525Z,3.03
2023-02-28T09:46:53.653Z,4.80
2023-02-28T09:49:35.856Z,4.63
2023-02-28T09:52:05.608Z,4.60
2023-02-28T09:54:34.248Z,3.42
2023-02-28T09:57:07.971Z,5.38
2023-02-28T10:00:02.908Z,4.72
2023-02-28T10:02:54.297Z,4.40
2023-02-28T10:05:35.896Z,4.13
2023-02-28T10:08:17.092Z,4.60
2023-02-28T10:10:47.625Z,4.90
2023-02-28T10:13:26.307Z,5.53
2023-02-28T10:15:57.579Z,4.70
2023-02-28T10:18:29.594Z,5.13
2023-02-28T10:20:57.554Z,3.83
2023-02-28T10:23:32.747Z,5.18
2023-02-28T10:26:12.896Z,5.75
2023-02-28T10:28:40.223Z,4.45
2023-02-28T10:31:17.704Z,5.78
2023-02-28T10:33:46.101Z,5.57
2023-02-28T10:36:18.096Z,5.25
2023-02-28T10:38:45.921Z,6.47
2023-02-28T10:41:37.319Z,6.15
2023-02-28T10:44:24.553Z,6.20
2023-02-28T10:46:52.246Z,6.07
2023-02-28T10:49:31.640Z,4.63
2023-02-28T10:52:02.206Z,6.20
2023-02-28T10:54:38.822Z,6.32
2023-02-28T10:57:29.549Z,5.57
2023-02-28T11:00:27.841Z,5.60
2023-02-28T11:02:54.553Z,5.80
2023-02-28T11:05:28.752Z,5.45
2023-02-28T11:07:57.974Z,5.97
2023-02-28T11:10:29.546Z,5.93
2023-02-28T11:12:59.779Z,6.07
2023-02-28T11:15:30.519Z,5.80
2023-02-28T11:18:38.288Z,6.15
2023-02-28T11:21:05.086Z,6.10
2023-02-28T11:23:36.940Z,6.22
2023-02-28T11:26:12.047Z,6.95
2023-02-28T11:28:43.228Z,6.47
2023-02-28T11:31:12.492Z,6.53
2023-02-28T11:33:51.962Z,6.28
2023-02-28T11:36:28.819Z,6.25
2023-02-28T11:39:02.649Z,7.60
2023-02-28T11:41:55.840Z,7.57
2023-02-28T11:44:43.321Z,6.72
2023-02-28T11:47:21.391Z,8.13
2023-02-28T11:50:21.007Z,7.90
2023-02-28T11:53:01.419Z,7.80
2023-02-28T11:55:43.135Z,7.72
2023-02-28T11:58:24.498Z,7.78
2023-02-28T12:00:57.826Z,6.82
2023-02-28T12:03:33.205Z,6.93
2023-02-28T12:06:05.498Z,6.25
2023-02-28T12:09:16.616Z,4.95
2023-02-28T12:11:56.538Z,6.78
2023-02-28T12:14:58.357Z,7.47
2023-02-28T12:17:51.274Z,7.95
2023-02-28T12:20:22.530Z,8.50
2023-02-28T12:23:10.960Z,8.48
2023-02-28T12:25:48.069Z,8.65
2023-02-28T12:28:18.958Z,8.48
2023-02-28T12:30:57.743Z,7.63
2023-02-28T12:33:27.428Z,8.55
2023-02-28T12:35:58.837Z,8.20
2023-02-28T12:41:15.558Z,7.95
2023-02-28T12:43:47.703Z,8.77
2023-02-28T12:46:46.208Z,7.93
2023-02-28T12:49:40.245Z,8.13
2023-02-28T12:52:12.025Z,8.73
2023-02-28T12:55:06.894Z,9.00
2023-02-28T12:57:51.650Z,7.60
2023-02-28T13:00:23.189Z,8.82
2023-02-28T13:03:24.139Z,8.13
2023-02-28T13:06:18.682Z,7.82
2023-02-28T13:09:17.458Z,8.48
2023-02-28T13:11:52.418Z,8.05
2023-02-28T13:14:38.241Z,8.15
2023-02-28T13:17:14.242Z,8.55
2023-02-28T13:19:56.539Z,8.20
2023-02-28T13:22:43.133Z,8.18
2023-02-28T13:27:57.939Z,8.32
2023-02-28T13:30:56.963Z,8.80
2023-02-28T13:33:40.000Z,6.88
2023-02-28T13:36:18.474Z,8.15
2023-02-28T13:38:47.382Z,8.77
2023-02-28T13:41:32.354Z,9.02
2023-02-28T13:44:12.679Z,8.63
2023-02-28T13:46:48.241Z,9.55
2023-02-28T13:49:21.074Z,8.60
2023-02-28T13:52:20.436Z,9.00
2023-02-28T13:54:59.598Z,9.15
2023-02-28T13:57:44.806Z,9.23
2023-02-28T14:00:40.700Z,8.68
2023-02-28T14:03:16.137Z,8.52
2023-02-28T14:05:43.590Z,9.05
2023-02-28T14:08:23.366Z,9.13
2023-02-28T14:11:03.256Z,7.95
2023-02-28T14:13:46.108Z,8.50
2023-02-28T14:16:21.367Z,8.75
2023-02-28T14:19:13.339Z,9.07
2023-02-28T14:21:49.340Z,7.90
2023-02-28T14:24:43.974Z,8.65
2023-02-28T14:27:32.080Z,8.57
2023-02-28T14:30:16.689Z,8.50
2023-02-28T14:33:02.023Z,8.05
2023-02-28T14:35:49.014Z,8.35
2023-02-28T14:38:22.372Z,8.52
2023-02-28T14:40:52.007Z,7.85
2023-02-28T14:43:26.798Z,7.57
2023-02-28T14:45:56.784Z,8.27
2023-02-28T14:48:26.090Z,8.85
2023-02-28T14:50:56.286Z,9.00
2023-02-28T14:53:26.782Z,8.68
2023-02-28T14:55:53.959Z,7.85
2023-02-28T14:58:27.749Z,8.93
2023-02-28T15:00:57.577Z,9.00
2023-02-28T15:03:28.864Z,8.95
2023-02-28T15:05:58.365Z,8.85
2023-02-28T15:08:25.803Z,8.18
2023-02-28T15:11:02.270Z,8.95
2023-02-28T15:13:58.206Z,8.05
2023-02-28T15:16:33.978Z,8.00
2023-02-28T15:19:03.293Z,7.18
2023-02-28T15:21:36.334Z,7.35
2023-02-28T15:24:16.194Z,8.50
2023-02-28T15:26:49.895Z,6.60
2023-02-28T15:29:21.537Z,7.53
2023-02-28T15:31:58.002Z,7.13
2023-02-28T15:34:44.550Z,7.68
2023-02-28T15:40:08.878Z,8.13
2023-02-28T15:42:35.396Z,7.20
2023-02-28T15:45:02.010Z,7.75
2023-02-28T15:47:30.963Z,7.05
2023-02-28T15:50:03.275Z,7.40
2023-02-28T15:52:38.569Z,7.20
2023-02-28T15:55:27.362Z,8.13
2023-02-28T15:58:01.673Z,7.57
2023-02-28T16:00:30.921Z,7.65
2023-02-28T16:02:57.576Z,8.57
2023-02-28T16:05:32.825Z,8.65
2023-02-28T16:08:02.249Z,7.97
2023-02-28T16:10:30.057Z,8.65
2023-02-28T16:12:58.283Z,8.55
2023-02-28T16:15:28.106Z,9.35
2023-02-28T16:17:55.637Z,10.82
2023-02-28T16:20:28.336Z,9.57
2023-02-28T16:22:55.640Z,9.82
2023-02-28T16:25:27.870Z,8.85
2023-02-28T16:27:55.547Z,9.82
2023-02-28T16:30:27.228Z,10.38
2023-02-28T16:32:56.238Z,11.27
2023-02-28T16:35:23.476Z,10.77
2023-02-28T16:37:52.612Z,10.25
2023-02-28T16:40:22.844Z,10.93
2023-02-28T16:42:53.445Z,15.77
2023-02-28T16:45:23.775Z,14.40
2023-02-28T16:47:50.492Z,14.95
2023-02-28T16:50:23.057Z,15.30
2023-02-28T16:52:50.522Z,12.30
2023-02-28T16:55:17.194Z,12.02
2023-02-28T16:57:44.374Z,12.50
2023-02-28T17:00:14.039Z,12.63
2023-02-28T17:02:42.647Z,14.07
2023-02-28T17:05:11.872Z,16.50
2023-02-28T17:07:38.735Z,29.92
2023-02-28T17:10:15.439Z,24.27
2023-02-28T17:12:42.017Z,18.60
2023-02-28T17:15:11.192Z,17.13
2023-02-28T17:17:37.996Z,15.57
2023-02-28T17:20:06.801Z,14.57
2023-02-28T17:22:33.561Z,14.23
2023-02-28T17:25:00.050Z,14.85
2023-02-28T17:27:26.612Z,16.20
2023-02-28T17:29:53.119Z,17.13
2023-02-28T17:32:20.109Z,15.73
2023-02-28T17:34:47.199Z,16.70
2023-02-28T17:37:14.208Z,21.42
2023-02-28T17:39:40.768Z,23.50
2023-02-28T17:42:07.378Z,24.88
2023-02-28T17:44:33.930Z,22.55
2023-02-28T17:47:00.700Z,26.35
2023-02-28T17:49:28.168Z,18.85
2023-02-28T17:51:54.654Z,16.85
2023-02-28T17:54:21.185Z,17.25
2023-02-28T17:56:47.691Z,19.02
2023-02-28T17:59:14.740Z,18.38
2023-02-28T18:01:41.321Z,17.17
2023-02-28T18:04:08.039Z,22.23
2023-02-28T18:06:48.421Z,20.98
2023-02-28T18:09:16.765Z,21.13
2023-02-28T18:11:44.834Z,23.27
2023-02-28T18:14:11.797Z,20.02
2023-02-28T18:16:39.094Z,23.85
2023-02-28T18:19:07.032Z,23.38
2023-02-28T18:21:33.611Z,24.20
2023-02-28T18:24:00.129Z,22.70
2023-02-28T18:26:26.673Z,23.20
2023-02-28T18:28:53.156Z,21.63
2023-02-28T18:31:21.026Z,29.08
2023-02-28T18:33:52.269Z,42.03
2023-02-28T18:36:20.907Z,46.75
2023-02-28T18:38:48.673Z,44.75
2023-02-28T18:41:15.183Z,37.75
2023-02-28T18:43:41.762Z,28.88
2023-02-28T18:46:11.536Z,25.73
2023-02-28T18:48:38.728Z,39.13
2023-02-28T18:51:12.953Z,39.28
2023-02-28T18:53:40.775Z,36.92
2023-02-28T18:56:09.232Z,46.95
2023-02-28T18:58:35.884Z,32.92
2023-02-28T19:01:04.286Z,28.10
2023-02-28T19:03:30.876Z,24.88
2023-02-28T19:05:59.671Z,27.05
2023-02-28T19:08:26.918Z,25.85
2023-02-28T19:10:53.433Z,27.20
2023-02-28T19:13:20.901Z,27.02
2023-02-28T19:15:47.824Z,26.42
2023-02-28T19:18:14.308Z,26.67
2023-02-28T19:20:40.863Z,29.05
2023-02-28T19:23:07.394Z,27.00
2023-02-28T19:25:34.061Z,28.00
2023-02-28T19:28:00.581Z,29.88
2023-02-28T19:30:27.189Z,31.08
2023-02-28T19:32:53.743Z,28.75
2023-02-28T19:35:20.360Z,26.52
2023-02-28T19:37:46.860Z,27.77
2023-02-28T19:40:13.913Z,28.08
2023-02-28T19:42:40.608Z,30.10
2023-02-28T19:45:10.108Z,31.08
2023-02-28T19:47:36.722Z,29.77
2023-02-28T19:50:03.384Z,28.92
2023-02-28T19:52:29.972Z,27.02
2023-02-28T19:54:56.452Z,26.25
2023-02-28T19:57:22.927Z,28.17
2023-02-28T19:59:51.109Z,27.77
2023-02-28T20:02:20.495Z,28.48
2023-02-28T20:04:51.680Z,26.50
2023-02-28T20:07:22.082Z,26.92
2023-02-28T20:09:49.139Z,26.05
2023-02-28T20:12:24.230Z,27.30
2023-02-28T20:14:51.706Z,27.40
2023-02-28T20:17:18.917Z,27.27
2023-02-28T20:19:46.090Z,26.15
2023-02-28T20:22:12.820Z,25.80
2023-02-28T20:24:39.429Z,27.15
2023-02-28T20:27:05.986Z,27.90
2023-02-28T20:29:34.088Z,42.55
2023-02-28T20:32:00.966Z,53.10
2023-02-28T20:34:27.599Z,49.40
2023-02-28T20:36:56.553Z,46.92
2023-02-28T20:39:23.853Z,45.33
2023-02-28T20:41:50.649Z,43.97
2023-02-28T20:44:17.174Z,43.40
2023-02-28T20:46:43.932Z,40.85
2023-02-28T20:49:11.060Z,26.35
2023-02-28T20:51:40.166Z,29.90
2023-02-28T20:54:07.649Z,26.38
2023-02-28T20:56:34.414Z,26.58
2023-02-28T20:59:01.024Z,27.55
2023-02-28T21:01:29.380Z,27.80
2023-02-28T21:03:57.198Z,30.25
2023-02-28T21:06:27.349Z,32.25
2023-02-28T21:08:54.844Z,29.08
2023-02-28T21:11:28.949Z,28.10
2023-02-28T21:13:58.338Z,26.73
2023-02-28T21:16:27.298Z,24.75
2023-02-28T21:18:54.261Z,25.75
2023-02-28T21:21:23.412Z,26.13
2023-02-28T21:23:51.871Z,25.95
2023-02-28T21:26:21.343Z,26.13
2023-02-28T21:28:53.319Z,27.80
2023-02-28T21:31:22.059Z,24.27
2023-02-28T21:33:49.196Z,26.17
2023-02-28T21:36:20.957Z,26.40
2023-02-28T21:38:51.083Z,25.02
2023-02-28T21:41:19.728Z,28.83
2023-02-28T21:43:47.669Z,26.48
2023-02-28T21:46:22.546Z,26.10
2023-02-28T21:48:49.591Z,25.77
2023-02-28T21:51:20.017Z,28.92
2023-02-28T21:53:48.374Z,28.90
2023-02-28T21:56:18.356Z,29.92
2023-02-28T21:58:45.206Z,31.63
2023-02-28T22:01:22.718Z,33.47
2023-02-28T22:03:50.422Z,33.65
2023-02-28T22:06:22.766Z,35.75
2023-02-28T22:08:53.285Z,37.28
2023-02-28T22:11:20.680Z,33.40
2023-02-28T22:13:48.810Z,31.55
2023-02-28T22:16:18.208Z,34.08
2023-02-28T22:18:45.162Z,34.22
2023-02-28T22:21:13.501Z,37.83
2023-02-28T22:23:41.750Z,63.58
2023-02-28T22:26:11.602Z,74.28
2023-02-28T22:28:38.666Z,49.55
2023-02-28T22:31:24.673Z,40.97
2023-02-28T22:33:54.504Z,33.25
2023-02-28T22:36:21.414Z,33.00
2023-02-28T22:38:50.887Z,26.55
2023-02-28T22:41:19.403Z,29.48
2023-02-28T22:43:50.998Z,30.33
2023-02-28T22:46:17.809Z,32.95
2023-02-28T22:48:44.376Z,32.75
2023-02-28T22:51:14.956Z,33.03
2023-02-28T22:53:43.760Z,33.05
2023-02-28T22:56:12.107Z,33.40
2023-02-28T22:58:38.693Z,33.78
2023-02-28T23:01:16.719Z,32.08
2023-02-28T23:03:43.829Z,30.52
2023-02-28T23:06:29.289Z,32.28
2023-02-28T23:08:59.774Z,48.87
2023-02-28T23:11:39.638Z,38.75
2023-02-28T23:14:06.969Z,37.00
2023-02-28T23:16:39.589Z,40.08
2023-02-28T23:19:09.695Z,38.90
2023-02-28T23:21:37.286Z,37.58
2023-02-28T23:24:06.053Z,37.80
2023-02-28T23:26:33.112Z,40.72
2023-02-28T23:28:59.785Z,39.88
2023-02-28T23:31:26.430Z,46.25
2023-02-28T23:33:53.110Z,50.35
2023-02-28T23:36:19.823Z,67.60
2023-02-28T23:38:48.975Z,65.03
2023-02-28T23:41:16.577Z,62.13
2023-02-28T23:43:43.889Z,64.78
2023-02-28T23:46:11.905Z,62.75
2023-02-28T23:48:39.631Z,55.95
2023-02-28T23:51:09.969Z,51.92
2023-02-28T23:53:38.657Z,50.05
2023-02-28T23:56:07.640Z,47.25
2023-02-28T23:58:34.422Z,56.08
